createdAt,value
2023-04-13T00:14:35.453Z,1.90
2023-04-13T00:17:13.725Z,1.27
2023-04-13T00:19:53.098Z,1.38
2023-04-13T00:22:59.697Z,1.05
2023-04-13T00:25:54.269Z,1.45
2023-04-13T00:36:17.975Z,2.13
2023-04-13T00:40:02.288Z,0.80
2023-04-13T00:50:37.891Z,3.38
2023-04-13T00:56:55.574Z,3.42
2023-04-13T00:59:26.268Z,6.95
2023-04-13T01:02:05.963Z,5.82
2023-04-13T01:04:49.651Z,3.22
2023-04-13T01:07:39.301Z,2.25
2023-04-13T01:10:22.762Z,2.20
2023-04-13T01:12:58.377Z,2.95
2023-04-13T01:22:43.380Z,1.40
2023-04-13T01:25:32.594Z,0.70
2023-04-13T01:36:04.485Z,3.85
2023-04-13T01:38:28.835Z,1.13
2023-04-13T01:40:56.265Z,1.85
2023-04-13T01:43:24.527Z,1.83
2023-04-13T01:46:19.174Z,1.65
2023-04-13T01:48:49.861Z,1.75
2023-04-13T02:06:06.532Z,5.20
2023-04-13T02:08:45.507Z,3.72
2023-04-13T02:11:18.156Z,3.60
2023-04-13T02:16:37.974Z,3.72
2023-04-13T02:19:04.990Z,4.22
2023-04-13T02:21:35.701Z,5.22
2023-04-13T02:24:05.544Z,5.55
2023-04-13T02:26:37.335Z,4.18
2023-04-13T02:29:07.636Z,3.33
2023-04-13T02:32:06.185Z,2.75
2023-04-13T02:34:34.450Z,1.70
2023-04-13T02:37:02.489Z,1.77
2023-04-13T02:39:29.855Z,2.05
2023-04-13T02:41:58.467Z,2.60
2023-04-13T02:44:25.512Z,4.13
2023-04-13T02:46:52.675Z,2.10
2023-04-13T02:49:20.268Z,1.48
2023-04-13T02:51:47.263Z,1.80
2023-04-13T02:54:14.040Z,6.63
2023-04-13T02:56:41.237Z,4.13
2023-04-13T02:59:08.130Z,10.93
2023-04-13T03:01:35.073Z,3.95
2023-04-13T03:04:03.238Z,4.22
2023-04-13T03:06:31.553Z,5.13
2023-04-13T03:08:59.330Z,3.30
2023-04-13T03:11:26.745Z,4.53
2023-04-13T03:13:54.453Z,3.25
2023-04-13T03:16:21.374Z,3.20
2023-04-13T03:18:48.819Z,3.17
2023-04-13T03:21:16.204Z,4.18
2023-04-13T03:23:43.976Z,3.45
2023-04-13T03:26:11.228Z,4.47
2023-04-13T03:28:38.236Z,3.58
2023-04-13T03:31:05.358Z,4.63
2023-04-13T03:33:32.737Z,4.18
2023-04-13T03:35:59.668Z,4.90
2023-04-13T03:38:26.577Z,6.40
2023-04-13T03:40:54.261Z,9.18
2023-04-13T03:43:23.349Z,5.20
2023-04-13T03:45:50.375Z,7.40
2023-04-13T03:48:24.126Z,3.83
2023-04-13T03:50:52.874Z,4.97
2023-04-13T03:53:19.711Z,4.35
2023-04-13T04:01:31.387Z,3.13
2023-04-13T04:04:55.139Z,4.38
2023-04-13T04:07:25.744Z,7.97
2023-04-13T04:10:20.278Z,5.60
2023-04-13T04:12:57.937Z,7.40
2023-04-13T04:18:13.552Z,5.40
2023-04-13T04:31:57.841Z,7.47
2023-04-13T04:35:34.505Z,10.75
2023-04-13T04:38:27.564Z,8.27
2023-04-13T04:41:04.343Z,8.32
2023-04-13T04:43:31.172Z,8.63
2023-04-13T04:45:58.459Z,7.88
2023-04-13T04:48:32.021Z,10.57
2023-04-13T04:51:00.270Z,8.75
2023-04-13T04:53:27.321Z,6.85
2023-04-13T04:55:54.350Z,6.03
2023-04-13T04:58:21.330Z,9.18
2023-04-13T05:00:49.937Z,12.85
2023-04-13T05:03:17.166Z,11.38
2023-04-13T05:11:49.972Z,12.98
2023-04-13T05:14:16.744Z,14.02
2023-04-13T05:16:43.550Z,10.70
2023-04-13T05:19:10.908Z,14.63
2023-04-13T05:21:38.228Z,12.18
2023-04-13T05:24:05.679Z,11.88
2023-04-13T05:26:37.319Z,12.80
2023-04-13T05:29:06.937Z,12.07
2023-04-13T05:31:34.185Z,9.40
2023-04-13T05:34:01.864Z,9.13
2023-04-13T05:36:45.781Z,6.93
2023-04-13T05:39:12.580Z,12.45
2023-04-13T05:41:39.324Z,12.93
2023-04-13T05:44:06.538Z,13.68
2023-04-13T05:46:34.232Z,18.48
2023-04-13T05:49:02.189Z,21.30
2023-04-13T05:51:40.065Z,21.77
2023-04-13T05:54:09.965Z,10.02
2023-04-13T05:56:38.027Z,13.20
2023-04-13T05:59:06.510Z,16.13
2023-04-13T06:01:33.786Z,17.65
2023-04-13T06:04:04.031Z,13.68
2023-04-13T06:06:31.896Z,13.23
2023-04-13T06:09:01.386Z,11.93
2023-04-13T06:11:30.133Z,8.18
2023-04-13T06:13:59.942Z,9.63
2023-04-13T06:16:30.148Z,12.77
2023-04-13T06:19:00.617Z,12.43
2023-04-13T06:21:38.864Z,9.20
2023-04-13T06:24:12.058Z,13.80
2023-04-13T06:26:39.466Z,11.00
2023-04-13T06:29:07.842Z,12.10
2023-04-13T06:31:37.543Z,17.17
2023-04-13T06:34:04.918Z,10.88
2023-04-13T06:36:38.208Z,13.90
2023-04-13T06:39:08.069Z,15.35
2023-04-13T06:41:43.232Z,13.75
2023-04-13T06:44:12.503Z,8.05
2023-04-13T06:46:54.675Z,7.57
2023-04-13T06:49:24.492Z,10.82
2023-04-13T06:51:53.463Z,10.35
2023-04-13T06:54:20.349Z,14.20
2023-04-13T06:56:52.476Z,7.30
2023-04-13T06:59:21.356Z,9.80
2023-04-13T07:01:48.762Z,8.85
2023-04-13T07:04:27.406Z,10.25
2023-04-13T07:07:08.240Z,7.45
2023-04-13T07:09:39.417Z,8.73
2023-04-13T07:12:08.574Z,11.45
2023-04-13T07:14:39.865Z,9.07
2023-04-13T07:17:12.704Z,8.18
2023-04-13T07:19:55.899Z,10.63
2023-04-13T07:22:23.279Z,6.80
2023-04-13T07:24:59.883Z,9.98
2023-04-13T07:27:30.743Z,9.98
2023-04-13T07:29:59.720Z,11.40
2023-04-13T07:32:31.848Z,7.65
2023-04-13T07:35:03.729Z,9.93
2023-04-13T07:37:30.948Z,7.35
2023-04-13T07:40:19.342Z,9.20
2023-04-13T07:42:55.441Z,9.25
2023-04-13T07:45:28.729Z,9.40
2023-04-13T07:47:56.064Z,7.15
2023-04-13T07:50:23.579Z,7.30
2023-04-13T07:52:51.821Z,12.77
2023-04-13T07:55:19.039Z,11.27
2023-04-13T07:57:46.135Z,7.90
2023-04-13T08:00:15.657Z,7.60
2023-04-13T08:02:43.454Z,7.75
2023-04-13T08:05:14.038Z,6.68
2023-04-13T08:07:41.196Z,11.50
2023-04-13T08:10:08.908Z,6.15
2023-04-13T08:12:36.284Z,3.55
2023-04-13T08:15:05.580Z,3.92
2023-04-13T08:17:33.466Z,6.80
2023-04-13T08:20:02.769Z,8.32
2023-04-13T08:22:29.588Z,3.50
2023-04-13T08:24:56.859Z,4.78
2023-04-13T08:27:24.212Z,5.18
2023-04-13T08:29:56.321Z,5.47
2023-04-13T08:32:23.444Z,5.90
2023-04-13T08:34:50.640Z,6.13
2023-04-13T08:37:17.650Z,6.82
2023-04-13T08:39:45.529Z,5.93
2023-04-13T08:42:13.354Z,7.97
2023-04-13T08:44:40.372Z,5.72
2023-04-13T08:47:07.515Z,3.28
2023-04-13T08:49:37.241Z,7.53
2023-04-13T08:52:07.053Z,3.38
2023-04-13T08:54:35.355Z,10.38
2023-04-13T08:57:06.841Z,6.25
2023-04-13T08:59:35.447Z,5.53
2023-04-13T09:02:05.194Z,4.97
2023-04-13T09:04:41.979Z,4.22
2023-04-13T09:07:16.454Z,4.50
2023-04-13T09:09:48.868Z,4.50
2023-04-13T09:12:15.813Z,4.80
2023-04-13T09:14:44.243Z,5.03
2023-04-13T09:17:22.343Z,3.50
2023-04-13T09:19:49.610Z,4.65
2023-04-13T09:22:16.868Z,5.38
2023-04-13T09:24:44.235Z,9.25
2023-04-13T09:27:24.248Z,3.70
2023-04-13T09:29:52.974Z,5.43
2023-04-13T09:32:24.237Z,6.38
2023-04-13T09:35:07.193Z,5.78
2023-04-13T09:37:45.601Z,5.07
2023-04-13T09:40:15.450Z,4.20
2023-04-13T09:42:59.733Z,3.33
2023-04-13T09:45:41.203Z,2.50
2023-04-13T09:48:21.820Z,3.22
2023-04-13T09:50:59.824Z,1.92
2023-04-13T09:53:28.877Z,1.70
2023-04-13T09:56:00.054Z,4.82
2023-04-13T09:58:27.786Z,3.08
2023-04-13T10:01:10.765Z,3.33
2023-04-13T10:03:38.700Z,4.28
2023-04-13T10:06:07.997Z,3.10
2023-04-13T10:08:39.127Z,4.43
2023-04-13T10:11:15.958Z,2.47
2023-04-13T10:13:59.311Z,5.53
2023-04-13T10:16:56.865Z,2.35
2023-04-13T10:19:28.493Z,4.32
2023-04-13T10:21:56.636Z,2.75
2023-04-13T10:24:27.957Z,3.58
2023-04-13T10:27:07.731Z,3.00
2023-04-13T10:29:35.608Z,1.77
2023-04-13T10:32:07.375Z,2.85
2023-04-13T10:34:46.578Z,4.55
2023-04-13T10:37:21.975Z,2.63
2023-04-13T10:39:50.240Z,1.80
2023-04-13T10:42:18.186Z,2.13
2023-04-13T10:44:48.180Z,2.53
2023-04-13T10:47:22.553Z,2.22
2023-04-13T10:49:53.558Z,2.55
2023-04-13T10:52:39.878Z,6.68
2023-04-13T10:55:13.869Z,4.30
2023-04-13T10:57:44.192Z,4.35
2023-04-13T11:00:27.316Z,2.83
2023-04-13T11:03:25.404Z,3.97
2023-04-13T11:05:59.941Z,2.42
2023-04-13T11:08:37.297Z,2.17
2023-04-13T11:11:05.053Z,1.88
2023-04-13T11:13:43.399Z,1.85
2023-04-13T11:16:11.949Z,3.17
2023-04-13T11:18:41.868Z,5.75
2023-04-13T11:22:01.491Z,2.42
2023-04-13T11:24:34.419Z,3.45
2023-04-13T11:27:17.162Z,4.43
2023-04-13T11:29:50.096Z,6.75
2023-04-13T11:32:21.877Z,2.20
2023-04-13T11:34:57.960Z,3.22
2023-04-13T11:37:35.027Z,5.32
2023-04-13T11:40:10.392Z,4.10
2023-04-13T11:43:22.097Z,1.95
2023-04-13T11:49:18.835Z,2.45
2023-04-13T11:51:49.451Z,2.22
2023-04-13T11:54:20.615Z,2.97
2023-04-13T11:56:54.172Z,4.13
2023-04-13T11:59:31.178Z,1.63
2023-04-13T12:02:21.864Z,3.05
2023-04-13T12:05:29.727Z,1.70
2023-04-13T12:08:07.402Z,3.05
2023-04-13T12:13:31.117Z,3.95
2023-04-13T12:17:01.273Z,3.25
2023-04-13T12:19:38.483Z,2.60
2023-04-13T12:24:51.180Z,3.63
2023-04-13T12:31:21.909Z,2.85
2023-04-13T12:36:28.691Z,4.10
2023-04-13T12:39:06.321Z,2.13
2023-04-13T13:19:47.389Z,3.97
2023-04-13T13:25:00.447Z,2.50
2023-04-13T13:28:05.273Z,3.58
2023-04-13T13:30:18.858Z,2.42
2023-04-13T13:35:21.492Z,2.25
2023-04-13T13:37:56.303Z,2.40
2023-04-13T13:40:51.359Z,4.35
2023-04-13T14:04:47.339Z,2.08
2023-04-13T14:07:14.639Z,3.33
2023-04-13T14:09:41.438Z,1.90
2023-04-13T14:12:08.909Z,2.80
2023-04-13T14:14:39.051Z,2.13
2023-04-13T14:17:26.876Z,3.72
2023-04-13T14:20:03.353Z,2.40
2023-04-13T14:22:31.227Z,2.97
2023-04-13T14:24:59.364Z,2.03
2023-04-13T14:27:26.337Z,2.40
2023-04-13T14:29:53.828Z,2.58
2023-04-13T14:32:21.283Z,3.65
2023-04-13T14:34:47.986Z,2.13
2023-04-13T14:37:16.367Z,7.55
2023-04-13T14:39:48.243Z,4.53
2023-04-13T14:42:16.847Z,2.33
2023-04-13T14:44:44.393Z,6.85
2023-04-13T14:47:12.347Z,1.77
2023-04-13T14:49:42.023Z,4.85
2023-04-13T14:52:09.523Z,2.17
2023-04-13T14:54:36.815Z,2.15
2023-04-13T14:57:04.942Z,3.90
2023-04-13T14:59:32.095Z,2.10
2023-04-13T15:02:00.289Z,1.48
2023-04-13T15:04:28.370Z,2.03
2023-04-13T15:06:55.514Z,2.47
2023-04-13T15:09:22.424Z,2.85
2023-04-13T15:11:50.727Z,3.38
2023-04-13T15:14:17.925Z,4.43
2023-04-13T15:16:44.683Z,4.47
2023-04-13T15:19:12.889Z,9.10
2023-04-13T15:21:40.000Z,7.93
2023-04-13T15:24:08.787Z,4.30
2023-04-13T15:26:40.926Z,2.92
2023-04-13T15:29:11.173Z,3.92
2023-04-13T15:31:39.487Z,4.03
2023-04-13T15:34:09.098Z,6.63
2023-04-13T15:36:38.611Z,2.13
2023-04-13T15:39:05.557Z,5.80
2023-04-13T15:41:37.545Z,8.13
2023-04-13T15:44:07.589Z,5.13
2023-04-13T15:46:36.351Z,4.88
2023-04-13T15:54:33.850Z,5.25
2023-04-13T15:59:56.496Z,5.05
2023-04-13T16:02:23.594Z,4.30
2023-04-13T16:05:54.069Z,3.10
2023-04-13T16:07:39.050Z,3.65
2023-04-13T16:10:07.348Z,2.63
2023-04-13T16:12:34.965Z,6.20
2023-04-13T16:15:07.487Z,3.92
2023-04-13T16:17:35.322Z,3.15
2023-04-13T16:20:22.508Z,6.10
2023-04-13T16:22:51.090Z,5.50
2023-04-13T16:25:19.536Z,4.53
2023-04-13T16:27:48.684Z,5.28
2023-04-13T16:30:18.756Z,4.25
2023-04-13T16:32:46.845Z,5.00
2023-04-13T16:38:12.690Z,2.45
2023-04-13T16:40:40.289Z,4.22
2023-04-13T16:43:13.197Z,6.30
2023-04-13T16:45:48.996Z,3.83
2023-04-13T16:48:22.276Z,3.40
2023-04-13T16:50:49.678Z,3.25
2023-04-13T16:53:17.591Z,4.65
2023-04-13T16:56:00.871Z,3.20
2023-04-13T16:58:28.178Z,3.60
2023-04-13T17:00:55.164Z,3.33
2023-04-13T17:03:22.646Z,6.43
2023-04-13T17:05:49.699Z,6.07
2023-04-13T17:08:22.564Z,6.75
2023-04-13T17:10:51.628Z,5.05
2023-04-13T17:13:18.600Z,4.35
2023-04-13T17:15:45.550Z,5.28
2023-04-13T17:18:12.766Z,4.90
2023-04-13T17:20:40.298Z,3.63
2023-04-13T17:23:07.577Z,6.40
2023-04-13T17:25:41.257Z,6.60
2023-04-13T17:28:08.652Z,3.17
2023-04-13T17:30:35.745Z,6.25
2023-04-13T17:33:02.862Z,2.90
2023-04-13T17:35:30.135Z,2.58
2023-04-13T17:37:56.961Z,5.30
2023-04-13T17:40:23.970Z,6.65
2023-04-13T17:42:50.911Z,4.90
2023-04-13T17:45:19.015Z,4.38
2023-04-13T17:47:46.836Z,5.05
2023-04-13T17:50:15.418Z,4.78
2023-04-13T17:52:42.305Z,4.40
2023-04-13T17:55:09.677Z,5.53
2023-04-13T17:57:36.758Z,5.85
2023-04-13T18:00:10.557Z,5.38
2023-04-13T18:02:39.538Z,5.93
2023-04-13T18:05:07.380Z,5.30
2023-04-13T18:07:34.284Z,4.93
2023-04-13T18:10:01.287Z,3.15
2023-04-13T18:12:27.993Z,4.50
2023-04-13T18:14:59.180Z,6.00
2023-04-13T18:17:26.599Z,7.43
2023-04-13T18:19:56.363Z,4.43
2023-04-13T18:22:23.198Z,3.70
2023-04-13T18:24:50.174Z,4.88
2023-04-13T18:27:16.925Z,4.53
2023-04-13T18:29:44.161Z,4.95
2023-04-13T18:32:10.928Z,4.90
2023-04-13T18:34:37.975Z,3.90
2023-04-13T18:37:04.751Z,6.43
2023-04-13T18:39:33.817Z,6.43
2023-04-13T18:42:01.835Z,4.07
2023-04-13T18:44:28.680Z,4.22
2023-04-13T18:46:55.959Z,2.53
2023-04-13T18:49:22.916Z,6.65
2023-04-13T18:51:49.729Z,4.35
2023-04-13T18:54:16.758Z,3.95
2023-04-13T18:56:43.554Z,3.20
2023-04-13T18:59:10.913Z,4.63
2023-04-13T19:01:37.883Z,3.90
2023-04-13T19:04:05.121Z,4.55
2023-04-13T19:06:32.426Z,3.40
2023-04-13T19:09:01.957Z,6.05
2023-04-13T19:11:28.867Z,2.85
2023-04-13T19:13:56.472Z,6.35
2023-04-13T19:16:24.535Z,3.50
2023-04-13T19:18:51.568Z,4.88
2023-04-13T19:21:23.851Z,4.43
2023-04-13T19:23:50.918Z,3.22
2023-04-13T19:26:17.825Z,3.67
2023-04-13T19:28:47.542Z,3.53
2023-04-13T19:31:14.259Z,4.50
2023-04-13T19:33:41.083Z,6.60
2023-04-13T19:36:08.455Z,5.72
2023-04-13T19:38:35.690Z,4.85
2023-04-13T19:41:02.593Z,5.78
2023-04-13T19:43:30.105Z,6.40
2023-04-13T19:45:57.163Z,5.38
2023-04-13T19:48:24.013Z,4.07
2023-04-13T19:50:51.123Z,4.28
2023-04-13T19:53:17.900Z,4.93
2023-04-13T19:55:47.467Z,4.95
2023-04-13T19:58:14.547Z,5.68
2023-04-13T20:00:42.417Z,5.22
2023-04-13T20:03:09.324Z,3.88
2023-04-13T20:05:40.276Z,5.72
2023-04-13T20:08:07.004Z,3.25
2023-04-13T20:10:39.239Z,7.15
2023-04-13T20:13:06.278Z,3.78
2023-04-13T20:15:35.498Z,4.38
2023-04-13T20:18:06.596Z,4.10
2023-04-13T20:20:35.915Z,3.33
2023-04-13T20:23:02.950Z,3.38
2023-04-13T20:25:29.879Z,7.40
2023-04-13T20:27:57.273Z,8.18
2023-04-13T20:30:31.852Z,7.20
2023-04-13T20:33:07.965Z,5.30
2023-04-13T20:35:34.815Z,5.53
2023-04-13T20:38:01.968Z,6.10
2023-04-13T20:40:29.307Z,2.97
2023-04-13T20:42:58.636Z,6.13
2023-04-13T20:45:26.136Z,8.00
2023-04-13T20:47:56.231Z,6.85
2023-04-13T20:50:25.643Z,8.07
2023-04-13T20:52:56.906Z,6.82
2023-04-13T20:55:24.591Z,6.88
2023-04-13T20:57:57.068Z,4.20
2023-04-13T21:00:30.506Z,5.10
2023-04-13T21:02:58.192Z,3.20
2023-04-13T21:05:25.091Z,3.08
2023-04-13T21:07:52.158Z,3.15
2023-04-13T21:10:18.989Z,4.22
2023-04-13T21:12:46.257Z,3.22
2023-04-13T21:15:13.128Z,6.68
2023-04-13T21:17:40.230Z,4.15
2023-04-13T21:20:09.346Z,3.85
2023-04-13T21:22:37.383Z,4.93
2023-04-13T21:25:07.362Z,2.55
2023-04-13T21:27:34.136Z,5.30
2023-04-13T21:30:01.624Z,4.32
2023-04-13T21:32:28.701Z,6.25
2023-04-13T21:34:57.600Z,2.47
2023-04-13T21:37:24.828Z,4.07
2023-04-13T21:39:51.757Z,3.88
2023-04-13T21:42:19.416Z,3.13
2023-04-13T21:44:47.620Z,2.53
2023-04-13T21:47:14.407Z,2.70
2023-04-13T21:49:43.236Z,4.80
2023-04-13T21:52:10.792Z,4.05
2023-04-13T21:54:37.648Z,4.22
2023-04-13T21:57:07.044Z,3.65
2023-04-13T21:59:34.306Z,4.57
2023-04-13T22:02:01.204Z,4.97
2023-04-13T22:04:28.203Z,4.53
2023-04-13T22:06:56.081Z,3.08
2023-04-13T22:09:23.000Z,5.82
2023-04-13T22:11:51.517Z,5.22
2023-04-13T22:14:19.330Z,3.75
2023-04-13T22:16:48.420Z,3.78
2023-04-13T22:19:15.565Z,4.00
2023-04-13T22:21:42.404Z,4.13
2023-04-13T22:24:10.719Z,3.85
2023-04-13T22:26:37.492Z,2.97
2023-04-13T22:29:04.733Z,3.35
2023-04-13T22:31:31.874Z,3.42
2023-04-13T22:33:58.581Z,2.72
2023-04-13T22:36:25.668Z,2.85
2023-04-13T22:38:53.055Z,3.90
2023-04-13T22:41:19.938Z,2.42
2023-04-13T22:43:47.149Z,3.60
2023-04-13T22:46:14.210Z,3.20
2023-04-13T22:48:40.937Z,3.83
2023-04-13T22:51:07.875Z,3.15
2023-04-13T22:53:35.017Z,5.38
2023-04-13T22:56:01.775Z,2.50
2023-04-13T22:58:28.782Z,4.30
2023-04-13T23:00:55.515Z,2.55
2023-04-13T23:03:22.797Z,2.30
2023-04-13T23:05:49.991Z,3.20
2023-04-13T23:08:17.166Z,3.13
2023-04-13T23:10:44.025Z,6.28
2023-04-13T23:13:11.330Z,3.22
2023-04-13T23:15:41.630Z,4.30
2023-04-13T23:18:08.514Z,3.10
2023-04-13T23:20:35.402Z,3.67
2023-04-13T23:23:02.288Z,2.67
2023-04-13T23:25:29.325Z,3.53
2023-04-13T23:27:58.701Z,2.80
2023-04-13T23:30:27.255Z,2.80
2023-04-13T23:32:54.276Z,5.03
2023-04-13T23:35:21.513Z,4.07
2023-04-13T23:37:48.281Z,6.53
2023-04-13T23:40:15.269Z,3.30
2023-04-13T23:42:42.252Z,2.60
2023-04-13T23:45:09.295Z,3.83
2023-04-13T23:47:36.273Z,2.50
2023-04-13T23:50:05.475Z,3.40
2023-04-13T23:52:32.573Z,3.00
2023-04-13T23:54:59.746Z,2.88
2023-04-13T23:57:26.851Z,3.15
